Terminal Aerodrome Forecast
Issued by NWS

Current Version | Previous Version | Text Only | Print | Product List | Glossary Off
Versions: 1 2 3 4 5 6 7 8 9 10 11 12 13 14 15 16 17 18 19 20 21 22 23 24 25 26 27 28 29 30 31 32

946
FTUS41 KRNK 192341
TAFLWB
TAF
KLWB 192341Z 2000/2024 VRB03KT P6SM BKN150 OVC250
     FM200900 VRB04KT P6SM -RA OVC060
     FM201100 10005KT 4SM -RA BR BKN009 OVC015
      TEMPO 2012/2016 1SM RA BR BKN007 OVC013
     FM201600 00000KT 3SM -DZ BR OVC012=

USA.gov is the U.S. government's official web portal to all federal, state and local government web resources and services.